Station Historical Data
Daily Summary for January 13, 2017 Units:  Both    English   Metric
« Previous Day
Next Day »
Daily Weekly Monthly Yearly Custom
  High: Low: Average:
Temperature: 33.2 °F /  0.7 °C 22.3 °F /  -5.4 °C 27.2 °F /  -2.7 °C
Dew Point: 28.9 °F /  -1.7 °C 11.6 °F /  -11.3 °C 17.5 °F /  -8.1 °C
Humidity: 84% 50% 67%
Wind Speed: 15.0mph /  24.1km/h - 5mph /  8km/h
Wind Gust: 20.0mph /  32.2km/h - -
Wind- - WSW
Pressure: 30.79 in /  1042.5 hPa 30.26 in /  1024.6 hPa -
Precipitation: 0.00 in /  0 mm    
Historical Graphs
 
 
Tabular Data for January 13, 2017
Time Temperature Dew Point Pressure Wind Wind Speed Wind Gust Humidity Rainfall Rate (Hourly)
00:04 33.2 °F /  0.7 °C 28.9 °F /  -1.7 °C 30.26in /  1024.6hPa SW 8.0mph /  12.9km/h 17.0mph /  27.4km/h 84% 0.00in /  0mm
00:09 33.2 °F /  0.7 °C 28.9 °F /  -1.7 °C 30.26in /  1024.6hPa WSW 7.0mph /  11.3km/h 13.0mph /  20.9km/h 84% 0.00in /  0mm
00:14 33.2 °F /  0.7 °C 28.9 °F /  -1.7 °C 30.27in /  1024.9hPa WSW 7.0mph /  11.3km/h 13.0mph /  20.9km/h 84% 0.00in /  0mm
00:19 33.2 °F /  0.7 °C 28.6 °F /  -1.9 °C 30.26in /  1024.6hPa WSW 8.0mph /  12.9km/h 14.0mph /  22.5km/h 83% 0.00in /  0mm
00:24 33.1 °F /  0.6 °C 28.2 °F /  -2.1 °C 30.26in /  1024.6hPa WNW 11.0mph /  17.7km/h 18.0mph /  29km/h 82% 0.00in /  0mm
00:29 33.1 °F /  0.6 °C 28.2 °F /  -2.1 °C 30.27in /  1024.9hPa WSW 8.0mph /  12.9km/h 18.0mph /  29km/h 82% 0.00in /  0mm
00:34 33.0 °F /  0.6 °C 27.8 °F /  -2.3 °C 30.27in /  1024.9hPa WSW 8.0mph /  12.9km/h 18.0mph /  29km/h 81% 0.00in /  0mm
00:39 33.0 °F /  0.6 °C 28.1 °F /  -2.2 °C 30.27in /  1024.9hPa WSW 8.0mph /  12.9km/h 18.0mph /  29km/h 82% 0.00in /  0mm
00:44 33.0 °F /  0.6 °C 28.1 °F /  -2.2 °C 30.27in /  1024.9hPa WSW 7.0mph /  11.3km/h 18.0mph /  29km/h 82% 0.00in /  0mm
00:49 32.8 °F /  0.4 °C 27.9 °F /  -2.3 °C 30.27in /  1024.9hPa WSW 7.0mph /  11.3km/h 14.0mph /  22.5km/h 82% 0.00in /  0mm
00:54 32.6 °F /  0.3 °C 27.7 °F /  -2.4 °C 30.28in /  1025.3hPa WNW 9.0mph /  14.5km/h 16.0mph /  25.7km/h 82% 0.00in /  0mm
00:59 32.4 °F /  0.2 °C 27.2 °F /  -2.7 °C 30.28in /  1025.3hPa West 7.0mph /  11.3km/h 19.0mph /  30.6km/h 81% 0.00in /  0mm
01:09 32.0 °F /  0 °C 26.5 °F /  -3.1 °C 30.30in /  1026hPa West 7.0mph /  11.3km/h 20.0mph /  32.2km/h 80% 0.00in /  0mm
01:14 31.7 °F /  -0.2 °C 26.2 °F /  -3.2 °C 30.29in /  1025.6hPa West 7.0mph /  11.3km/h 16.0mph /  25.7km/h 80% 0.00in /  0mm
01:19 31.5 °F /  -0.3 °C 26.3 °F /  -3.2 °C 30.30in /  1026hPa West 6.0mph /  9.7km/h 16.0mph /  25.7km/h 81% 0.00in /  0mm
01:24 31.3 °F /  -0.4 °C 26.1 °F /  -3.3 °C 30.29in /  1025.6hPa West 7.0mph /  11.3km/h 13.0mph /  20.9km/h 81% 0.00in /  0mm
01:29 31.2 °F /  -0.4 °C 26.0 °F /  -3.3 °C 30.30in /  1026hPa West 12.0mph /  19.3km/h 15.0mph /  24.1km/h 81% 0.00in /  0mm
01:34 31.0 °F /  -0.6 °C 26.1 °F /  -3.3 °C 30.30in /  1026hPa West 6.0mph /  9.7km/h 15.0mph /  24.1km/h 82% 0.00in /  0mm
01:39 30.9 °F /  -0.6 °C 26.1 °F /  -3.3 °C 30.30in /  1026hPa SSW 4.0mph /  6.4km/h 12.0mph /  19.3km/h 82% 0.00in /  0mm
01:44 30.8 °F /  -0.7 °C 26.0 °F /  -3.3 °C 30.31in /  1026.3hPa West 6.0mph /  9.7km/h 14.0mph /  22.5km/h 82% 0.00in /  0mm
01:49 30.8 °F /  -0.7 °C 26.0 °F /  -3.3 °C 30.32in /  1026.6hPa WSW 10.0mph /  16.1km/h 11.0mph /  17.7km/h 82% 0.00in /  0mm
01:54 30.7 °F /  -0.7 °C 26.1 °F /  -3.3 °C 30.32in /  1026.6hPa WSW 7.0mph /  11.3km/h 12.0mph /  19.3km/h 83% 0.00in /  0mm
01:59 30.7 °F /  -0.7 °C 25.9 °F /  -3.4 °C 30.33in /  1027hPa WSW 9.0mph /  14.5km/h 11.0mph /  17.7km/h 82% 0.00in /  0mm
02:04 30.6 °F /  -0.8 °C 25.8 °F /  -3.4 °C 30.33in /  1027hPa WSW 7.0mph /  11.3km/h 15.0mph /  24.1km/h 82% 0.00in /  0mm
02:09 30.5 °F /  -0.8 °C 25.7 °F /  -3.5 °C 30.33in /  1027hPa WSW 7.0mph /  11.3km/h 15.0mph /  24.1km/h 82% 0.00in /  0mm
02:14 30.5 °F /  -0.8 °C 25.7 °F /  -3.5 °C 30.34in /  1027.3hPa WSW 7.0mph /  11.3km/h 16.0mph /  25.7km/h 82% 0.00in /  0mm
02:19 30.3 °F /  -0.9 °C 25.5 °F /  -3.6 °C 30.35in /  1027.7hPa West 7.0mph /  11.3km/h 16.0mph /  25.7km/h 82% 0.00in /  0mm
02:24 30.1 °F /  -1.1 °C 25.3 °F /  -3.7 °C 30.36in /  1028hPa WSW 6.0mph /  9.7km/h 13.0mph /  20.9km/h 82% 0.00in /  0mm
02:29 30.1 °F /  -1.1 °C 25.0 °F /  -3.9 °C 30.37in /  1028.3hPa WSW 15.0mph /  24.1km/h 18.0mph /  29km/h 81% 0.00in /  0mm
02:34 29.9 °F /  -1.2 °C 24.5 °F /  -4.2 °C 30.36in /  1028hPa West 9.0mph /  14.5km/h 16.0mph /  25.7km/h 80% 0.00in /  0mm
02:39 29.9 °F /  -1.2 °C 24.2 °F /  -4.3 °C 30.37in /  1028.3hPa West 7.0mph /  11.3km/h 16.0mph /  25.7km/h 79% 0.00in /  0mm
02:44 29.9 °F /  -1.2 °C 24.2 °F /  -4.3 °C 30.37in /  1028.3hPa WSW 6.0mph /  9.7km/h 13.0mph /  20.9km/h 79% 0.00in /  0mm
02:49 29.8 °F /  -1.2 °C 23.8 °F /  -4.6 °C 30.38in /  1028.7hPa WSW 4.0mph /  6.4km/h 14.0mph /  22.5km/h 78% 0.00in /  0mm
02:54 29.8 °F /  -1.2 °C 23.5 °F /  -4.7 °C 30.38in /  1028.7hPa NW 6.0mph /  9.7km/h 19.0mph /  30.6km/h 77% 0.00in /  0mm
02:59 29.7 °F /  -1.3 °C 23.7 °F /  -4.6 °C 30.38in /  1028.7hPa WSW 6.0mph /  9.7km/h 10.0mph /  16.1km/h 78% 0.00in /  0mm
03:04 29.6 °F /  -1.3 °C 23.6 °F /  -4.7 °C 30.39in /  1029hPa West 7.0mph /  11.3km/h 15.0mph /  24.1km/h 78% 0.00in /  0mm
03:09 29.5 °F /  -1.4 °C 23.2 °F /  -4.9 °C 30.39in /  1029hPa West 7.0mph /  11.3km/h 15.0mph /  24.1km/h 77% 0.00in /  0mm
03:14 29.4 °F /  -1.4 °C 22.8 °F /  -5.1 °C 30.39in /  1029hPa West 7.0mph /  11.3km/h 15.0mph /  24.1km/h 76% 0.00in /  0mm
03:19 29.5 °F /  -1.4 °C 22.6 °F /  -5.2 °C 30.40in /  1029.3hPa West 8.0mph /  12.9km/h 20.0mph /  32.2km/h 75% 0.00in /  0mm
03:24 29.5 °F /  -1.4 °C 22.6 °F /  -5.2 °C 30.40in /  1029.3hPa WSW 8.0mph /  12.9km/h 20.0mph /  32.2km/h 75% 0.00in /  0mm
03:29 29.5 °F /  -1.4 °C 22.6 °F /  -5.2 °C 30.40in /  1029.3hPa WSW 8.0mph /  12.9km/h 17.0mph /  27.4km/h 75% 0.00in /  0mm
03:34 29.5 °F /  -1.4 °C 22.6 °F /  -5.2 °C 30.41in /  1029.7hPa West 8.0mph /  12.9km/h 17.0mph /  27.4km/h 75% 0.00in /  0mm
03:39 29.4 °F /  -1.4 °C 22.1 °F /  -5.5 °C 30.41in /  1029.7hPa WNW 11.0mph /  17.7km/h 16.0mph /  25.7km/h 74% 0.00in /  0mm
03:44 29.4 °F /  -1.4 °C 22.1 °F /  -5.5 °C 30.42in /  1030hPa SW 8.0mph /  12.9km/h 19.0mph /  30.6km/h 74% 0.00in /  0mm
03:49 29.3 °F /  -1.5 °C 22.0 °F /  -5.6 °C 30.42in /  1030hPa WSW 8.0mph /  12.9km/h 14.0mph /  22.5km/h 74% 0.00in /  0mm
03:54 29.4 °F /  -1.4 °C 22.1 °F /  -5.5 °C 30.42in /  1030hPa West 10.0mph /  16.1km/h 14.0mph /  22.5km/h 74% 0.00in /  0mm
03:59 29.4 °F /  -1.4 °C 22.1 °F /  -5.5 °C 30.42in /  1030hPa WNW 6.0mph /  9.7km/h 12.0mph /  19.3km/h 74% 0.00in /  0mm
04:04 29.3 °F /  -1.5 °C 22.4 °F /  -5.3 °C 30.43in /  1030.4hPa WNW 4.0mph /  6.4km/h 10.0mph /  16.1km/h 75% 0.00in /  0mm
04:09 29.4 °F /  -1.4 °C 22.5 °F /  -5.3 °C 30.44in /  1030.7hPa WSW 4.0mph /  6.4km/h 10.0mph /  16.1km/h 75% 0.00in /  0mm
04:14 29.3 °F /  -1.5 °C 22.0 °F /  -5.6 °C 30.44in /  1030.7hPa West 5.0mph /  8km/h 10.0mph /  16.1km/h 74% 0.00in /  0mm
04:19 29.4 °F /  -1.4 °C 22.1 °F /  -5.5 °C 30.44in /  1030.7hPa West 6.0mph /  9.7km/h 11.0mph /  17.7km/h 74% 0.00in /  0mm
04:24 29.4 °F /  -1.4 °C 22.1 °F /  -5.5 °C 30.44in /  1030.7hPa WSW 7.0mph /  11.3km/h 14.0mph /  22.5km/h 74% 0.00in /  0mm
04:29 29.4 °F /  -1.4 °C 22.5 °F /  -5.3 °C 30.45in /  1031hPa WSW 6.0mph /  9.7km/h 14.0mph /  22.5km/h 75% 0.00in /  0mm
04:34 29.4 °F /  -1.4 °C 22.5 °F /  -5.3 °C 30.45in /  1031hPa WSW 5.0mph /  8km/h 12.0mph /  19.3km/h 75% 0.00in /  0mm
04:39 29.3 °F /  -1.5 °C 22.4 °F /  -5.3 °C 30.45in /  1031hPa West 5.0mph /  8km/h 13.0mph /  20.9km/h 75% 0.00in /  0mm
04:44 29.3 °F /  -1.5 °C 22.4 °F /  -5.3 °C 30.45in /  1031hPa Calm   10.0mph /  16.1km/h 75% 0.00in /  0mm
04:49 29.4 °F /  -1.4 °C 22.5 °F /  -5.3 °C 30.45in /  1031hPa NW 6.0mph /  9.7km/h 10.0mph /  16.1km/h 75% 0.00in /  0mm
04:54 29.3 °F /  -1.5 °C 22.4 °F /  -5.3 °C 30.45in /  1031hPa WSW 2.0mph /  3.2km/h 12.0mph /  19.3km/h 75% 0.00in /  0mm
04:59 29.3 °F /  -1.5 °C 22.4 °F /  -5.3 °C 30.46in /  1031.4hPa West 6.0mph /  9.7km/h 12.0mph /  19.3km/h 75% 0.00in /  0mm
05:04 29.3 °F /  -1.5 °C 22.4 °F /  -5.3 °C 30.46in /  1031.4hPa West 4.0mph /  6.4km/h 11.0mph /  17.7km/h 75% 0.00in /  0mm
05:09 29.3 °F /  -1.5 °C 22.7 °F /  -5.2 °C 30.47in /  1031.7hPa WNW 10.0mph /  16.1km/h 12.0mph /  19.3km/h 76% 0.00in /  0mm
05:14 29.1 °F /  -1.6 °C 20.9 °F /  -6.2 °C 30.47in /  1031.7hPa West 11.0mph /  17.7km/h 16.0mph /  25.7km/h 71% 0.00in /  0mm
05:19 28.8 °F /  -1.8 °C 20.2 °F /  -6.6 °C 30.48in /  1032.1hPa WNW 9.0mph /  14.5km/h 16.0mph /  25.7km/h 70% 0.00in /  0mm
05:24 28.6 °F /  -1.9 °C 20.1 °F /  -6.6 °C 30.48in /  1032.1hPa WNW 7.0mph /  11.3km/h 15.0mph /  24.1km/h 70% 0.00in /  0mm
05:29 28.5 °F /  -1.9 °C 20.0 °F /  -6.7 °C 30.49in /  1032.4hPa WNW 6.0mph /  9.7km/h 13.0mph /  20.9km/h 70% 0.00in /  0mm
05:34 28.3 °F /  -2.1 °C 19.8 °F /  -6.8 °C 30.49in /  1032.4hPa WNW 5.0mph /  8km/h 12.0mph /  19.3km/h 70% 0.00in /  0mm
05:39 28.2 °F /  -2.1 °C 19.7 °F /  -6.8 °C 30.49in /  1032.4hPa WNW 4.0mph /  6.4km/h 11.0mph /  17.7km/h 70% 0.00in /  0mm
05:44 28.1 °F /  -2.2 °C 19.6 °F /  -6.9 °C 30.50in /  1032.7hPa WNW 5.0mph /  8km/h 12.0mph /  19.3km/h 70% 0.00in /  0mm
05:49 28.0 °F /  -2.2 °C 19.5 °F /  -6.9 °C 30.50in /  1032.7hPa WNW 6.0mph /  9.7km/h 12.0mph /  19.3km/h 70% 0.00in /  0mm
05:54 27.9 °F /  -2.3 °C 19.4 °F /  -7 °C 30.50in /  1032.7hPa NW 7.0mph /  11.3km/h 14.0mph /  22.5km/h 70% 0.00in /  0mm
05:59 27.7 °F /  -2.4 °C 19.2 °F /  -7.1 °C 30.51in /  1033.1hPa West 7.0mph /  11.3km/h 16.0mph /  25.7km/h 70% 0.00in /  0mm
06:04 27.5 °F /  -2.5 °C 19.0 °F /  -7.2 °C 30.51in /  1033.1hPa NW 7.0mph /  11.3km/h 10.0mph /  16.1km/h 70% 0.00in /  0mm
06:09 27.2 °F /  -2.7 °C 18.7 °F /  -7.4 °C 30.51in /  1033.1hPa NNW 4.0mph /  6.4km/h 14.0mph /  22.5km/h 70% 0.00in /  0mm
06:14 27.0 °F /  -2.8 °C 18.2 °F /  -7.7 °C 30.52in /  1033.4hPa NW 7.0mph /  11.3km/h 13.0mph /  20.9km/h 69% 0.00in /  0mm
06:19 26.7 °F /  -2.9 °C 17.9 °F /  -7.8 °C 30.53in /  1033.7hPa WNW 5.0mph /  8km/h 12.0mph /  19.3km/h 69% 0.00in /  0mm
06:24 26.6 °F /  -3 °C 17.8 °F /  -7.9 °C 30.53in /  1033.7hPa WNW 6.0mph /  9.7km/h 12.0mph /  19.3km/h 69% 0.00in /  0mm
06:29 26.4 °F /  -3.1 °C 17.9 °F /  -7.8 °C 30.53in /  1033.7hPa WNW 6.0mph /  9.7km/h 11.0mph /  17.7km/h 70% 0.00in /  0mm
06:39 26.1 °F /  -3.3 °C 17.6 °F /  -8 °C 30.54in /  1034.1hPa West 7.0mph /  11.3km/h 11.0mph /  17.7km/h 70% 0.00in /  0mm
06:44 26.0 °F /  -3.3 °C 17.6 °F /  -8 °C 30.55in /  1034.4hPa WNW 6.0mph /  9.7km/h 11.0mph /  17.7km/h 70% 0.00in /  0mm
06:49 25.8 °F /  -3.4 °C 17.7 °F /  -7.9 °C 30.55in /  1034.4hPa WNW 5.0mph /  8km/h 11.0mph /  17.7km/h 71% 0.00in /  0mm
06:54 25.7 °F /  -3.5 °C 17.3 °F /  -8.2 °C 30.55in /  1034.4hPa WNW 6.0mph /  9.7km/h 13.0mph /  20.9km/h 70% 0.00in /  0mm
06:59 25.6 °F /  -3.6 °C 17.5 °F /  -8.1 °C 30.55in /  1034.4hPa North 6.0mph /  9.7km/h 10.0mph /  16.1km/h 71% 0.00in /  0mm
07:04 25.6 °F /  -3.6 °C 17.5 °F /  -8.1 °C 30.56in /  1034.8hPa WNW 5.0mph /  8km/h 8.0mph /  12.9km/h 71% 0.00in /  0mm
07:09 25.5 °F /  -3.6 °C 17.4 °F /  -8.1 °C 30.56in /  1034.8hPa WNW 4.0mph /  6.4km/h 12.0mph /  19.3km/h 71% 0.00in /  0mm
07:14 25.4 °F /  -3.7 °C 17.3 °F /  -8.2 °C 30.56in /  1034.8hPa SW 10.0mph /  16.1km/h 11.0mph /  17.7km/h 71% 0.00in /  0mm
07:19 25.4 °F /  -3.7 °C 17.3 °F /  -8.2 °C 30.56in /  1034.8hPa NW 3.0mph /  4.8km/h 11.0mph /  17.7km/h 71% 0.00in /  0mm
07:24 25.4 °F /  -3.7 °C 17.3 °F /  -8.2 °C 30.57in /  1035.1hPa West 5.0mph /  8km/h 10.0mph /  16.1km/h 71% 0.00in /  0mm
07:29 25.3 °F /  -3.7 °C 17.2 °F /  -8.2 °C 30.57in /  1035.1hPa WNW 7.0mph /  11.3km/h 14.0mph /  22.5km/h 71% 0.00in /  0mm
07:34 25.3 °F /  -3.7 °C 17.2 °F /  -8.2 °C 30.57in /  1035.1hPa WNW 7.0mph /  11.3km/h 14.0mph /  22.5km/h 71% 0.00in /  0mm
07:39 25.2 °F /  -3.8 °C 16.8 °F /  -8.4 °C 30.57in /  1035.1hPa WNW 5.0mph /  8km/h 12.0mph /  19.3km/h 70% 0.00in /  0mm
07:44 25.2 °F /  -3.8 °C 16.5 °F /  -8.6 °C 30.57in /  1035.1hPa NW 5.0mph /  8km/h 15.0mph /  24.1km/h 69% 0.00in /  0mm
07:49 25.1 °F /  -3.8 °C 16.4 °F /  -8.7 °C 30.58in /  1035.4hPa WNW 2.0mph /  3.2km/h 13.0mph /  20.9km/h 69% 0.00in /  0mm
07:54 25.1 °F /  -3.8 °C 16.4 °F /  -8.7 °C 30.58in /  1035.4hPa WNW 3.0mph /  4.8km/h 10.0mph /  16.1km/h 69% 0.00in /  0mm
07:59 25.0 °F /  -3.9 °C 16.3 °F /  -8.7 °C 30.58in /  1035.4hPa WNW 2.0mph /  3.2km/h 9.0mph /  14.5km/h 69% 0.00in /  0mm
08:04 25.0 °F /  -3.9 °C 16.3 °F /  -8.7 °C 30.58in /  1035.4hPa WNW 4.0mph /  6.4km/h 11.0mph /  17.7km/h 69% 0.00in /  0mm
08:09 24.9 °F /  -3.9 °C 16.5 °F /  -8.6 °C 30.60in /  1036.1hPa WNW 4.0mph /  6.4km/h 11.0mph /  17.7km/h 70% 0.00in /  0mm
08:14 24.9 °F /  -3.9 °C 16.2 °F /  -8.8 °C 30.60in /  1036.1hPa WNW 4.0mph /  6.4km/h 10.0mph /  16.1km/h 69% 0.00in /  0mm
08:19 25.0 °F /  -3.9 °C 15.9 °F /  -8.9 °C 30.61in /  1036.5hPa WNW 4.0mph /  6.4km/h 10.0mph /  16.1km/h 68% 0.00in /  0mm
08:24 25.0 °F /  -3.9 °C 15.9 °F /  -8.9 °C 30.61in /  1036.5hPa NW 3.0mph /  4.8km/h 10.0mph /  16.1km/h 68% 0.00in /  0mm
08:29 25.1 °F /  -3.8 °C 16.0 °F /  -8.9 °C 30.61in /  1036.5hPa NW 5.0mph /  8km/h 10.0mph /  16.1km/h 68% 0.00in /  0mm
08:34 25.2 °F /  -3.8 °C 15.4 °F /  -9.2 °C 30.62in /  1036.8hPa WNW 6.0mph /  9.7km/h 16.0mph /  25.7km/h 66% 0.00in /  0mm
08:39 25.4 °F /  -3.7 °C 15.3 °F /  -9.3 °C 30.62in /  1036.8hPa WNW 8.0mph /  12.9km/h 16.0mph /  25.7km/h 65% 0.00in /  0mm
08:44 25.6 °F /  -3.6 °C 15.5 °F /  -9.2 °C 30.63in /  1037.1hPa West 7.0mph /  11.3km/h 14.0mph /  22.5km/h 65% 0.00in /  0mm
08:49 25.8 °F /  -3.4 °C 15.6 °F /  -9.1 °C 30.63in /  1037.1hPa WNW 6.0mph /  9.7km/h 14.0mph /  22.5km/h 65% 0.00in /  0mm
08:54 26.2 °F /  -3.2 °C 16.0 °F /  -8.9 °C 30.63in /  1037.1hPa West 9.0mph /  14.5km/h 11.0mph /  17.7km/h 65% 0.00in /  0mm
08:59 26.5 °F /  -3.1 °C 15.6 °F /  -9.1 °C 30.64in /  1037.5hPa WNW 3.0mph /  4.8km/h 10.0mph /  16.1km/h 63% 0.00in /  0mm
09:04 26.9 °F /  -2.8 °C 16.3 °F /  -8.7 °C 30.64in /  1037.5hPa NW 4.0mph /  6.4km/h 10.0mph /  16.1km/h 64% 0.00in /  0mm
09:09 26.9 °F /  -2.8 °C 16.3 °F /  -8.7 °C 30.64in /  1037.5hPa WNW 5.0mph /  8km/h 11.0mph /  17.7km/h 64% 0.00in /  0mm
09:14 26.8 °F /  -2.9 °C 15.9 °F /  -8.9 °C 30.64in /  1037.5hPa West 6.0mph /  9.7km/h 14.0mph /  22.5km/h 63% 0.00in /  0mm
09:19 26.6 °F /  -3 °C 15.7 °F /  -9.1 °C 30.65in /  1037.8hPa West 7.0mph /  11.3km/h 14.0mph /  22.5km/h 63% 0.00in /  0mm
09:24 26.6 °F /  -3 °C 16.1 °F /  -8.8 °C 30.65in /  1037.8hPa WSW 7.0mph /  11.3km/h 13.0mph /  20.9km/h 64% 0.00in /  0mm
09:29 27.2 °F /  -2.7 °C 16.6 °F /  -8.6 °C 30.65in /  1037.8hPa WNW 6.0mph /  9.7km/h 13.0mph /  20.9km/h 64% 0.00in /  0mm
09:34 27.6 °F /  -2.4 °C 16.3 °F /  -8.7 °C 30.66in /  1038.1hPa WNW 10.0mph /  16.1km/h 12.0mph /  19.3km/h 62% 0.00in /  0mm
09:39 27.6 °F /  -2.4 °C 16.6 °F /  -8.6 °C 30.66in /  1038.1hPa WNW 7.0mph /  11.3km/h 12.0mph /  19.3km/h 63% 0.00in /  0mm
09:44 27.4 °F /  -2.6 °C 16.8 °F /  -8.4 °C 30.66in /  1038.1hPa WNW 7.0mph /  11.3km/h 12.0mph /  19.3km/h 64% 0.00in /  0mm
09:49 27.4 °F /  -2.6 °C 17.2 °F /  -8.2 °C 30.67in /  1038.5hPa WNW 6.0mph /  9.7km/h 10.0mph /  16.1km/h 65% 0.00in /  0mm
09:54 27.2 °F /  -2.7 °C 17.0 °F /  -8.3 °C 30.67in /  1038.5hPa WNW 6.0mph /  9.7km/h 12.0mph /  19.3km/h 65% 0.00in /  0mm
09:59 27.2 °F /  -2.7 °C 17.3 °F /  -8.2 °C 30.67in /  1038.5hPa WNW 13.0mph /  20.9km/h 17.0mph /  27.4km/h 66% 0.00in /  0mm
10:04 26.5 °F /  -3.1 °C 16.7 °F /  -8.5 °C 30.68in /  1038.8hPa NW 5.0mph /  8km/h 14.0mph /  22.5km/h 66% 0.00in /  0mm
10:09 26.3 °F /  -3.2 °C 16.8 °F /  -8.4 °C 30.68in /  1038.8hPa NW 7.0mph /  11.3km/h 12.0mph /  19.3km/h 67% 0.00in /  0mm
10:14 26.0 °F /  -3.3 °C 15.8 °F /  -9 °C 30.69in /  1039.2hPa NW 6.0mph /  9.7km/h 13.0mph /  20.9km/h 65% 0.00in /  0mm
10:19 26.1 °F /  -3.3 °C 16.6 °F /  -8.6 °C 30.69in /  1039.2hPa NW 6.0mph /  9.7km/h 13.0mph /  20.9km/h 67% 0.00in /  0mm
10:24 26.5 °F /  -3.1 °C 16.3 °F /  -8.7 °C 30.69in /  1039.2hPa WNW 6.0mph /  9.7km/h 15.0mph /  24.1km/h 65% 0.00in /  0mm
10:29 26.8 °F /  -2.9 °C 16.2 °F /  -8.8 °C 30.69in /  1039.2hPa WNW 6.0mph /  9.7km/h 15.0mph /  24.1km/h 64% 0.00in /  0mm
10:34 27.2 °F /  -2.7 °C 17.0 °F /  -8.3 °C 30.70in /  1039.5hPa NW 6.0mph /  9.7km/h 12.0mph /  19.3km/h 65% 0.00in /  0mm
10:39 27.6 °F /  -2.4 °C 16.6 °F /  -8.6 °C 30.69in /  1039.2hPa WNW 8.0mph /  12.9km/h 12.0mph /  19.3km/h 63% 0.00in /  0mm
10:44 27.7 °F /  -2.4 °C 17.1 °F /  -8.3 °C 30.69in /  1039.2hPa NW 6.0mph /  9.7km/h 14.0mph /  22.5km/h 64% 0.00in /  0mm
10:49 27.7 °F /  -2.4 °C 16.7 °F /  -8.5 °C 30.70in /  1039.5hPa NNW 11.0mph /  17.7km/h 14.0mph /  22.5km/h 63% 0.00in /  0mm
10:54 27.8 °F /  -2.3 °C 16.8 °F /  -8.4 °C 30.70in /  1039.5hPa NW 6.0mph /  9.7km/h 11.0mph /  17.7km/h 63% 0.00in /  0mm
10:59 27.9 °F /  -2.3 °C 16.9 °F /  -8.4 °C 30.70in /  1039.5hPa WNW 6.0mph /  9.7km/h 10.0mph /  16.1km/h 63% 0.00in /  0mm
11:04 27.6 °F /  -2.4 °C 15.9 °F /  -8.9 °C 30.70in /  1039.5hPa West 6.0mph /  9.7km/h 11.0mph /  17.7km/h 61% 0.00in /  0mm
11:09 27.7 °F /  -2.4 °C 16.0 °F /  -8.9 °C 30.70in /  1039.5hPa WSW 4.0mph /  6.4km/h 13.0mph /  20.9km/h 61% 0.00in /  0mm
11:14 27.8 °F /  -2.3 °C 16.1 °F /  -8.8 °C 30.70in /  1039.5hPa West 7.0mph /  11.3km/h 14.0mph /  22.5km/h 61% 0.00in /  0mm
11:19 28.0 °F /  -2.2 °C 15.9 °F /  -8.9 °C 30.70in /  1039.5hPa West 7.0mph /  11.3km/h 14.0mph /  22.5km/h 60% 0.00in /  0mm
11:24 28.4 °F /  -2 °C 15.1 °F /  -9.4 °C 30.70in /  1039.5hPa WNW 6.0mph /  9.7km/h 12.0mph /  19.3km/h 57% 0.00in /  0mm
11:29 28.5 °F /  -1.9 °C 15.6 °F /  -9.1 °C 30.70in /  1039.5hPa WNW 5.0mph /  8km/h 11.0mph /  17.7km/h 58% 0.00in /  0mm
11:34 28.5 °F /  -1.9 °C 15.2 °F /  -9.3 °C 30.70in /  1039.5hPa WNW 7.0mph /  11.3km/h 12.0mph /  19.3km/h 57% 0.00in /  0mm
11:39 28.7 °F /  -1.8 °C 15.0 °F /  -9.4 °C 30.70in /  1039.5hPa West 7.0mph /  11.3km/h 12.0mph /  19.3km/h 56% 0.00in /  0mm
11:44 28.8 °F /  -1.8 °C 15.5 °F /  -9.2 °C 30.70in /  1039.5hPa SW 5.0mph /  8km/h 12.0mph /  19.3km/h 57% 0.00in /  0mm
11:49 28.9 °F /  -1.7 °C 15.6 °F /  -9.1 °C 30.69in /  1039.2hPa NW 3.0mph /  4.8km/h 10.0mph /  16.1km/h 57% 0.00in /  0mm
11:54 29.3 °F /  -1.5 °C 14.3 °F /  -9.8 °C 30.70in /  1039.5hPa North 2.0mph /  3.2km/h 11.0mph /  17.7km/h 53% 0.00in /  0mm
11:59 29.1 °F /  -1.6 °C 15.7 °F /  -9.1 °C 30.70in /  1039.5hPa WSW 8.0mph /  12.9km/h 13.0mph /  20.9km/h 57% 0.00in /  0mm
12:04 29.4 °F /  -1.4 °C 15.2 °F /  -9.3 °C 30.70in /  1039.5hPa West 6.0mph /  9.7km/h 12.0mph /  19.3km/h 55% 0.00in /  0mm
12:09 29.0 °F /  -1.7 °C 14.4 °F /  -9.8 °C 30.69in /  1039.2hPa WNW 3.0mph /  4.8km/h 9.0mph /  14.5km/h 54% 0.00in /  0mm
12:14 28.8 °F /  -1.8 °C 13.8 °F /  -10.1 °C 30.69in /  1039.2hPa NNW 5.0mph /  8km/h 10.0mph /  16.1km/h 53% 0.00in /  0mm
12:19 29.4 °F /  -1.4 °C 14.4 °F /  -9.8 °C 30.69in /  1039.2hPa NW 6.0mph /  9.7km/h 11.0mph /  17.7km/h 53% 0.00in /  0mm
12:24 29.2 °F /  -1.6 °C 14.6 °F /  -9.7 °C 30.69in /  1039.2hPa WNW 6.0mph /  9.7km/h 11.0mph /  17.7km/h 54% 0.00in /  0mm
12:29 28.3 °F /  -2.1 °C 12.5 °F /  -10.8 °C 30.69in /  1039.2hPa WNW 6.0mph /  9.7km/h 11.0mph /  17.7km/h 51% 0.00in /  0mm
12:34 29.5 °F /  -1.4 °C 15.7 °F /  -9.1 °C 30.69in /  1039.2hPa NW 5.0mph /  8km/h 10.0mph /  16.1km/h 56% 0.00in /  0mm
12:39 29.0 °F /  -1.7 °C 13.1 °F /  -10.5 °C 30.69in /  1039.2hPa NNW 4.0mph /  6.4km/h 10.0mph /  16.1km/h 51% 0.00in /  0mm
12:44 29.5 °F /  -1.4 °C 14.9 °F /  -9.5 °C 30.69in /  1039.2hPa NNW 4.0mph /  6.4km/h 9.0mph /  14.5km/h 54% 0.00in /  0mm
12:49 29.8 °F /  -1.2 °C 14.7 °F /  -9.6 °C 30.69in /  1039.2hPa NW 5.0mph /  8km/h 9.0mph /  14.5km/h 53% 0.00in /  0mm
12:54 29.2 °F /  -1.6 °C 13.7 °F /  -10.2 °C 30.69in /  1039.2hPa West 3.0mph /  4.8km/h 9.0mph /  14.5km/h 52% 0.00in /  0mm
12:59 28.8 °F /  -1.8 °C 14.2 °F /  -9.9 °C 30.69in /  1039.2hPa West 3.0mph /  4.8km/h 9.0mph /  14.5km/h 54% 0.00in /  0mm
13:04 29.7 °F /  -1.3 °C 15.9 °F /  -8.9 °C 30.69in /  1039.2hPa West 8.0mph /  12.9km/h 9.0mph /  14.5km/h 56% 0.00in /  0mm
13:09 29.2 °F /  -1.6 °C 14.6 °F /  -9.7 °C 30.69in /  1039.2hPa NW 4.0mph /  6.4km/h 9.0mph /  14.5km/h 54% 0.00in /  0mm
13:14 29.3 °F /  -1.5 °C 14.3 °F /  -9.8 °C 30.69in /  1039.2hPa WSW 4.0mph /  6.4km/h 9.0mph /  14.5km/h 53% 0.00in /  0mm
13:19 30.3 °F /  -0.9 °C 16.9 °F /  -8.4 °C 30.69in /  1039.2hPa NW 6.0mph /  9.7km/h 7.0mph /  11.3km/h 57% 0.00in /  0mm
13:24 30.1 °F /  -1.1 °C 15.4 °F /  -9.2 °C 30.69in /  1039.2hPa WNW 4.0mph /  6.4km/h 8.0mph /  12.9km/h 54% 0.00in /  0mm
13:29 30.4 °F /  -0.9 °C 15.7 °F /  -9.1 °C 30.69in /  1039.2hPa WNW 4.0mph /  6.4km/h 8.0mph /  12.9km/h 54% 0.00in /  0mm
13:34 30.2 °F /  -1 °C 15.5 °F /  -9.2 °C 30.69in /  1039.2hPa WNW 4.0mph /  6.4km/h 9.0mph /  14.5km/h 54% 0.00in /  0mm
13:39 29.0 °F /  -1.7 °C 14.8 °F /  -9.6 °C 30.69in /  1039.2hPa WNW 5.0mph /  8km/h 10.0mph /  16.1km/h 55% 0.00in /  0mm
13:44 28.8 °F /  -1.8 °C 14.6 °F /  -9.7 °C 30.69in /  1039.2hPa West 5.0mph /  8km/h 10.0mph /  16.1km/h 55% 0.00in /  0mm
13:49 29.8 °F /  -1.2 °C 16.8 °F /  -8.4 °C 30.69in /  1039.2hPa NW 5.0mph /  8km/h 6.0mph /  9.7km/h 58% 0.00in /  0mm
13:54 30.2 °F /  -1 °C 15.5 °F /  -9.2 °C 30.69in /  1039.2hPa WNW 3.0mph /  4.8km/h 11.0mph /  17.7km/h 54% 0.00in /  0mm
13:59 30.2 °F /  -1 °C 15.1 °F /  -9.4 °C 30.69in /  1039.2hPa WNW 5.0mph /  8km/h 12.0mph /  19.3km/h 53% 0.00in /  0mm
14:04 30.2 °F /  -1 °C 14.7 °F /  -9.6 °C 30.69in /  1039.2hPa WNW 5.0mph /  8km/h 10.0mph /  16.1km/h 52% 0.00in /  0mm
14:09 29.8 °F /  -1.2 °C 14.3 °F /  -9.8 °C 30.69in /  1039.2hPa WSW 4.0mph /  6.4km/h 11.0mph /  17.7km/h 52% 0.00in /  0mm
14:14 29.6 °F /  -1.3 °C 14.1 °F /  -9.9 °C 30.70in /  1039.5hPa West 1.0mph /  1.6km/h 7.0mph /  11.3km/h 52% 0.00in /  0mm
14:19 29.3 °F /  -1.5 °C 14.3 °F /  -9.8 °C 30.69in /  1039.2hPa NNW 3.0mph /  4.8km/h 8.0mph /  12.9km/h 53% 0.00in /  0mm
14:24 29.5 °F /  -1.4 °C 14.0 °F /  -10 °C 30.70in /  1039.5hPa NW 6.0mph /  9.7km/h 7.0mph /  11.3km/h 52% 0.00in /  0mm
14:29 29.3 °F /  -1.5 °C 12.9 °F /  -10.6 °C 30.70in /  1039.5hPa NW 7.0mph /  11.3km/h 9.0mph /  14.5km/h 50% 0.00in /  0mm
14:34 29.0 °F /  -1.7 °C 13.6 °F /  -10.2 °C 30.70in /  1039.5hPa NW 5.0mph /  8km/h 9.0mph /  14.5km/h 52% 0.00in /  0mm
14:39 29.1 °F /  -1.6 °C 14.5 °F /  -9.7 °C 30.70in /  1039.5hPa NW 4.0mph /  6.4km/h 8.0mph /  12.9km/h 54% 0.00in /  0mm
14:44 29.1 °F /  -1.6 °C 14.9 °F /  -9.5 °C 30.70in /  1039.5hPa NW 3.0mph /  4.8km/h 8.0mph /  12.9km/h 55% 0.00in /  0mm
14:49 29.2 °F /  -1.6 °C 14.6 °F /  -9.7 °C 30.71in /  1039.8hPa NNW 3.0mph /  4.8km/h 9.0mph /  14.5km/h 54% 0.00in /  0mm
14:54 29.1 °F /  -1.6 °C 14.1 °F /  -9.9 °C 30.71in /  1039.8hPa NNW 3.0mph /  4.8km/h 9.0mph /  14.5km/h 53% 0.00in /  0mm
14:59 29.0 °F /  -1.7 °C 14.8 °F /  -9.6 °C 30.71in /  1039.8hPa NW 4.0mph /  6.4km/h 8.0mph /  12.9km/h 55% 0.00in /  0mm
15:04 28.5 °F /  -1.9 °C 13.9 °F /  -10.1 °C 30.71in /  1039.8hPa NNW 4.0mph /  6.4km/h 8.0mph /  12.9km/h 54% 0.00in /  0mm
15:09 28.2 °F /  -2.1 °C 14.5 °F /  -9.7 °C 30.71in /  1039.8hPa NW 5.0mph /  8km/h 9.0mph /  14.5km/h 56% 0.00in /  0mm
15:14 28.0 °F /  -2.2 °C 14.3 °F /  -9.8 °C 30.72in /  1040.2hPa NNW 4.0mph /  6.4km/h 8.0mph /  12.9km/h 56% 0.00in /  0mm
15:19 28.1 °F /  -2.2 °C 14.4 °F /  -9.8 °C 30.72in /  1040.2hPa NNW 5.0mph /  8km/h 8.0mph /  12.9km/h 56% 0.00in /  0mm
15:24 27.8 °F /  -2.3 °C 14.5 °F /  -9.7 °C 30.72in /  1040.2hPa NW 6.0mph /  9.7km/h 8.0mph /  12.9km/h 57% 0.00in /  0mm
15:29 27.7 °F /  -2.4 °C 14.0 °F /  -10 °C 30.73in /  1040.5hPa NNW 9.0mph /  14.5km/h 9.0mph /  14.5km/h 56% 0.00in /  0mm
15:34 27.5 °F /  -2.5 °C 13.0 °F /  -10.6 °C 30.73in /  1040.5hPa North 3.0mph /  4.8km/h 12.0mph /  19.3km/h 54% 0.00in /  0mm
15:39 27.2 °F /  -2.7 °C 13.1 °F /  -10.5 °C 30.73in /  1040.5hPa NNW 5.0mph /  8km/h 12.0mph /  19.3km/h 55% 0.00in /  0mm
15:44 27.0 °F /  -2.8 °C 12.5 °F /  -10.8 °C 30.73in /  1040.5hPa NW 4.0mph /  6.4km/h 10.0mph /  16.1km/h 54% 0.00in /  0mm
15:49 26.9 °F /  -2.8 °C 11.6 °F /  -11.3 °C 30.74in /  1040.9hPa NNW 5.0mph /  8km/h 10.0mph /  16.1km/h 52% 0.00in /  0mm
15:54 26.9 °F /  -2.8 °C 12.0 °F /  -11.1 °C 30.74in /  1040.9hPa NW 4.0mph /  6.4km/h 8.0mph /  12.9km/h 53% 0.00in /  0mm
15:59 26.7 °F /  -2.9 °C 12.3 °F /  -10.9 °C 30.74in /  1040.9hPa NW 4.0mph /  6.4km/h 8.0mph /  12.9km/h 54% 0.00in /  0mm
16:04 26.6 °F /  -3 °C 12.2 °F /  -11 °C 30.74in /  1040.9hPa NNW 4.0mph /  6.4km/h 8.0mph /  12.9km/h 54% 0.00in /  0mm
16:09 26.6 °F /  -3 °C 12.6 °F /  -10.8 °C 30.75in /  1041.2hPa NW 3.0mph /  4.8km/h 8.0mph /  12.9km/h 55% 0.00in /  0mm
16:14 26.5 °F /  -3.1 °C 12.5 °F /  -10.8 °C 30.74in /  1040.9hPa NNW 3.0mph /  4.8km/h 7.0mph /  11.3km/h 55% 0.00in /  0mm
16:19 26.4 °F /  -3.1 °C 12.8 °F /  -10.7 °C 30.75in /  1041.2hPa NNW 1.0mph /  1.6km/h 7.0mph /  11.3km/h 56% 0.00in /  0mm
16:24 26.3 °F /  -3.2 °C 12.7 °F /  -10.7 °C 30.75in /  1041.2hPa NNW 2.0mph /  3.2km/h 6.0mph /  9.7km/h 56% 0.00in /  0mm
16:29 26.3 °F /  -3.2 °C 13.1 °F /  -10.5 °C 30.75in /  1041.2hPa WNW 2.0mph /  3.2km/h 7.0mph /  11.3km/h 57% 0.00in /  0mm
16:34 26.2 °F /  -3.2 °C 12.6 °F /  -10.8 °C 30.75in /  1041.2hPa WNW 5.0mph /  8km/h 7.0mph /  11.3km/h 56% 0.00in /  0mm
16:39 26.1 °F /  -3.3 °C 12.5 °F /  -10.8 °C 30.75in /  1041.2hPa West 3.0mph /  4.8km/h 7.0mph /  11.3km/h 56% 0.00in /  0mm
16:44 26.0 °F /  -3.3 °C 12.4 °F /  -10.9 °C 30.75in /  1041.2hPa WNW 4.0mph /  6.4km/h 5.0mph /  8km/h 56% 0.00in /  0mm
16:49 25.9 °F /  -3.4 °C 12.3 °F /  -10.9 °C 30.75in /  1041.2hPa West 4.0mph /  6.4km/h 8.0mph /  12.9km/h 56% 0.00in /  0mm
16:54 25.8 °F /  -3.4 °C 12.6 °F /  -10.8 °C 30.75in /  1041.2hPa NW 6.0mph /  9.7km/h 7.0mph /  11.3km/h 57% 0.00in /  0mm
16:59 25.7 °F /  -3.5 °C 12.6 °F /  -10.8 °C 30.76in /  1041.5hPa West 3.0mph /  4.8km/h 7.0mph /  11.3km/h 57% 0.00in /  0mm
17:04 25.7 °F /  -3.5 °C 12.9 °F /  -10.6 °C 30.76in /  1041.5hPa NW 3.0mph /  4.8km/h 6.0mph /  9.7km/h 58% 0.00in /  0mm
17:09 25.6 °F /  -3.6 °C 12.9 °F /  -10.6 °C 30.76in /  1041.5hPa Calm   5.0mph /  8km/h 58% 0.00in /  0mm
17:14 25.6 °F /  -3.6 °C 12.9 °F /  -10.6 °C 30.76in /  1041.5hPa WNW 2.0mph /  3.2km/h 5.0mph /  8km/h 58% 0.00in /  0mm
17:19 25.5 °F /  -3.6 °C 13.1 °F /  -10.5 °C 30.76in /  1041.5hPa NW 2.0mph /  3.2km/h 5.0mph /  8km/h 59% 0.00in /  0mm
17:24 25.4 °F /  -3.7 °C 12.7 °F /  -10.7 °C 30.76in /  1041.5hPa WNW 4.0mph /  6.4km/h 4.0mph /  6.4km/h 58% 0.00in /  0mm
17:29 25.4 °F /  -3.7 °C 13.1 °F /  -10.5 °C 30.76in /  1041.5hPa West 2.0mph /  3.2km/h 6.0mph /  9.7km/h 59% 0.00in /  0mm
17:34 25.4 °F /  -3.7 °C 13.4 °F /  -10.3 °C 30.77in /  1041.9hPa WNW 1.0mph /  1.6km/h 6.0mph /  9.7km/h 60% 0.00in /  0mm
17:39 25.4 °F /  -3.7 °C 13.1 °F /  -10.5 °C 30.77in /  1041.9hPa NNW 3.0mph /  4.8km/h 8.0mph /  12.9km/h 59% 0.00in /  0mm
17:44 25.4 °F /  -3.7 °C 13.1 °F /  -10.5 °C 30.77in /  1041.9hPa NW 1.0mph /  1.6km/h 5.0mph /  8km/h 59% 0.00in /  0mm
17:49 25.4 °F /  -3.7 °C 13.1 °F /  -10.5 °C 30.77in /  1041.9hPa NW 2.0mph /  3.2km/h 6.0mph /  9.7km/h 59% 0.00in /  0mm
17:54 25.4 °F /  -3.7 °C 13.4 °F /  -10.3 °C 30.77in /  1041.9hPa NW 2.0mph /  3.2km/h 6.0mph /  9.7km/h 60% 0.00in /  0mm
17:59 25.4 °F /  -3.7 °C 13.4 °F /  -10.3 °C 30.77in /  1041.9hPa West 1.0mph /  1.6km/h 8.0mph /  12.9km/h 60% 0.00in /  0mm
18:04 25.4 °F /  -3.7 °C 13.4 °F /  -10.3 °C 30.77in /  1041.9hPa WNW 4.0mph /  6.4km/h 6.0mph /  9.7km/h 60% 0.00in /  0mm
18:09 25.5 °F /  -3.6 °C 13.1 °F /  -10.5 °C 30.78in /  1042.2hPa WNW 1.0mph /  1.6km/h 5.0mph /  8km/h 59% 0.00in /  0mm
18:14 25.6 °F /  -3.6 °C 13.2 °F /  -10.4 °C 30.78in /  1042.2hPa West 2.0mph /  3.2km/h 5.0mph /  8km/h 59% 0.00in /  0mm
18:19 25.6 °F /  -3.6 °C 13.6 °F /  -10.2 °C 30.78in /  1042.2hPa West 3.0mph /  4.8km/h 6.0mph /  9.7km/h 60% 0.00in /  0mm
18:24 25.6 °F /  -3.6 °C 13.2 °F /  -10.4 °C 30.78in /  1042.2hPa West 3.0mph /  4.8km/h 7.0mph /  11.3km/h 59% 0.00in /  0mm
18:29 25.7 °F /  -3.5 °C 13.3 °F /  -10.4 °C 30.78in /  1042.2hPa West 3.0mph /  4.8km/h 7.0mph /  11.3km/h 59% 0.00in /  0mm
18:34 25.7 °F /  -3.5 °C 13.3 °F /  -10.4 °C 30.78in /  1042.2hPa West 3.0mph /  4.8km/h 6.0mph /  9.7km/h 59% 0.00in /  0mm
18:39 25.7 °F /  -3.5 °C 13.7 °F /  -10.2 °C 30.78in /  1042.2hPa West 4.0mph /  6.4km/h 6.0mph /  9.7km/h 60% 0.00in /  0mm
18:44 25.8 °F /  -3.4 °C 13.8 °F /  -10.1 °C 30.78in /  1042.2hPa West 2.0mph /  3.2km/h 6.0mph /  9.7km/h 60% 0.00in /  0mm
18:49 25.8 °F /  -3.4 °C 14.2 °F /  -9.9 °C 30.78in /  1042.2hPa West 3.0mph /  4.8km/h 6.0mph /  9.7km/h 61% 0.00in /  0mm
18:54 25.8 °F /  -3.4 °C 13.8 °F /  -10.1 °C 30.78in /  1042.2hPa WNW 3.0mph /  4.8km/h 6.0mph /  9.7km/h 60% 0.00in /  0mm
18:59 25.8 °F /  -3.4 °C 13.8 °F /  -10.1 °C 30.78in /  1042.2hPa WNW 3.0mph /  4.8km/h 6.0mph /  9.7km/h 60% 0.00in /  0mm
19:04 25.8 °F /  -3.4 °C 13.8 °F /  -10.1 °C 30.78in /  1042.2hPa West 3.0mph /  4.8km/h 5.0mph /  8km/h 60% 0.00in /  0mm
19:09 25.8 °F /  -3.4 °C 13.8 °F /  -10.1 °C 30.78in /  1042.2hPa West 2.0mph /  3.2km/h 5.0mph /  8km/h 60% 0.00in /  0mm
19:14 25.8 °F /  -3.4 °C 13.8 °F /  -10.1 °C 30.78in /  1042.2hPa WNW 3.0mph /  4.8km/h 7.0mph /  11.3km/h 60% 0.00in /  0mm
19:19 25.7 °F /  -3.5 °C 14.1 °F /  -9.9 °C 30.78in /  1042.2hPa WNW 3.0mph /  4.8km/h 6.0mph /  9.7km/h 61% 0.00in /  0mm
19:24 25.8 °F /  -3.4 °C 14.2 °F /  -9.9 °C 30.78in /  1042.2hPa West 3.0mph /  4.8km/h 6.0mph /  9.7km/h 61% 0.00in /  0mm
19:29 25.8 °F /  -3.4 °C 14.2 °F /  -9.9 °C 30.78in /  1042.2hPa West 3.0mph /  4.8km/h 5.0mph /  8km/h 61% 0.00in /  0mm
19:34 25.7 °F /  -3.5 °C 14.1 °F /  -9.9 °C 30.78in /  1042.2hPa West 3.0mph /  4.8km/h 5.0mph /  8km/h 61% 0.00in /  0mm
19:39 25.6 °F /  -3.6 °C 14.0 °F /  -10 °C 30.78in /  1042.2hPa West 3.0mph /  4.8km/h 7.0mph /  11.3km/h 61% 0.00in /  0mm
19:44 25.7 °F /  -3.5 °C 14.1 °F /  -9.9 °C 30.78in /  1042.2hPa WNW 2.0mph /  3.2km/h 4.0mph /  6.4km/h 61% 0.00in /  0mm
19:49 25.6 °F /  -3.6 °C 14.4 °F /  -9.8 °C 30.78in /  1042.2hPa NW 1.0mph /  1.6km/h 4.0mph /  6.4km/h 62% 0.00in /  0mm
19:54 25.4 °F /  -3.7 °C 14.5 °F /  -9.7 °C 30.78in /  1042.2hPa West 2.0mph /  3.2km/h 4.0mph /  6.4km/h 63% 0.00in /  0mm
19:59 25.2 °F /  -3.8 °C 14.4 °F /  -9.8 °C 30.78in /  1042.2hPa WNW 1.0mph /  1.6km/h 5.0mph /  8km/h 63% 0.00in /  0mm
20:04 25.1 °F /  -3.8 °C 14.3 °F /  -9.8 °C 30.78in /  1042.2hPa NW 2.0mph /  3.2km/h 5.0mph /  8km/h 63% 0.00in /  0mm
20:09 25.0 °F /  -3.9 °C 14.5 °F /  -9.7 °C 30.78in /  1042.2hPa NW 2.0mph /  3.2km/h 4.0mph /  6.4km/h 64% 0.00in /  0mm
20:14 24.9 °F /  -3.9 °C 14.4 °F /  -9.8 °C 30.78in /  1042.2hPa NW 1.0mph /  1.6km/h 5.0mph /  8km/h 64% 0.00in /  0mm
20:19 24.9 °F /  -3.9 °C 14.8 °F /  -9.6 °C 30.78in /  1042.2hPa NNW 2.0mph /  3.2km/h 3.0mph /  4.8km/h 65% 0.00in /  0mm
20:24 24.8 °F /  -4 °C 14.7 °F /  -9.6 °C 30.78in /  1042.2hPa NW 2.0mph /  3.2km/h 4.0mph /  6.4km/h 65% 0.00in /  0mm
20:29 24.8 °F /  -4 °C 14.7 °F /  -9.6 °C 30.78in /  1042.2hPa NE 4.0mph /  6.4km/h 4.0mph /  6.4km/h 65% 0.00in /  0mm
20:34 24.9 °F /  -3.9 °C 17.5 °F /  -8.1 °C 30.79in /  1042.5hPa North 3.0mph /  4.8km/h 7.0mph /  11.3km/h 73% 0.00in /  0mm
20:39 24.7 °F /  -4.1 °C 17.9 °F /  -7.8 °C 30.79in /  1042.5hPa NNE 4.0mph /  6.4km/h 7.0mph /  11.3km/h 75% 0.00in /  0mm
20:44 24.6 °F /  -4.1 °C 18.1 °F /  -7.7 °C 30.79in /  1042.5hPa NNE 3.0mph /  4.8km/h 6.0mph /  9.7km/h 76% 0.00in /  0mm
20:49 24.5 °F /  -4.2 °C 18.0 °F /  -7.8 °C 30.79in /  1042.5hPa NE 5.0mph /  8km/h 8.0mph /  12.9km/h 76% 0.00in /  0mm
20:54 24.4 °F /  -4.2 °C 18.2 °F /  -7.7 °C 30.79in /  1042.5hPa North 1.0mph /  1.6km/h 7.0mph /  11.3km/h 77% 0.00in /  0mm
20:59 24.3 °F /  -4.3 °C 18.1 °F /  -7.7 °C 30.79in /  1042.5hPa NE 4.0mph /  6.4km/h 8.0mph /  12.9km/h 77% 0.00in /  0mm
21:04 24.3 °F /  -4.3 °C 18.1 °F /  -7.7 °C 30.78in /  1042.2hPa NE 3.0mph /  4.8km/h 8.0mph /  12.9km/h 77% 0.00in /  0mm
21:09 24.3 °F /  -4.3 °C 18.1 °F /  -7.7 °C 30.78in /  1042.2hPa NE 3.0mph /  4.8km/h 7.0mph /  11.3km/h 77% 0.00in /  0mm
21:14 24.2 °F /  -4.3 °C 18.3 °F /  -7.6 °C 30.79in /  1042.5hPa NNE 2.0mph /  3.2km/h 5.0mph /  8km/h 78% 0.00in /  0mm
21:19 24.1 °F /  -4.4 °C 18.2 °F /  -7.7 °C 30.78in /  1042.2hPa NNE 3.0mph /  4.8km/h 5.0mph /  8km/h 78% 0.00in /  0mm
21:24 24.0 °F /  -4.4 °C 18.1 °F /  -7.7 °C 30.79in /  1042.5hPa North 3.0mph /  4.8km/h 5.0mph /  8km/h 78% 0.00in /  0mm
21:29 24.0 °F /  -4.4 °C 18.1 °F /  -7.7 °C 30.79in /  1042.5hPa NNE 3.0mph /  4.8km/h 7.0mph /  11.3km/h 78% 0.00in /  0mm
21:34 23.9 °F /  -4.5 °C 18.3 °F /  -7.6 °C 30.78in /  1042.2hPa NNE 1.0mph /  1.6km/h 7.0mph /  11.3km/h 79% 0.00in /  0mm
21:39 23.9 °F /  -4.5 °C 18.3 °F /  -7.6 °C 30.79in /  1042.5hPa NNE 3.0mph /  4.8km/h 6.0mph /  9.7km/h 79% 0.00in /  0mm
21:44 23.8 °F /  -4.6 °C 18.5 °F /  -7.5 °C 30.79in /  1042.5hPa NE 3.0mph /  4.8km/h 5.0mph /  8km/h 80% 0.00in /  0mm
21:49 23.7 °F /  -4.6 °C 18.1 °F /  -7.7 °C 30.79in /  1042.5hPa NNE 3.0mph /  4.8km/h 7.0mph /  11.3km/h 79% 0.00in /  0mm
21:54 23.6 °F /  -4.7 °C 18.0 °F /  -7.8 °C 30.78in /  1042.2hPa NE 2.0mph /  3.2km/h 4.0mph /  6.4km/h 79% 0.00in /  0mm
21:59 23.5 °F /  -4.7 °C 17.6 °F /  -8 °C 30.78in /  1042.2hPa NE 4.0mph /  6.4km/h 7.0mph /  11.3km/h 78% 0.00in /  0mm
22:04 23.3 °F /  -4.8 °C 17.2 °F /  -8.2 °C 30.78in /  1042.2hPa NNE 4.0mph /  6.4km/h 7.0mph /  11.3km/h 77% 0.00in /  0mm
22:09 23.2 °F /  -4.9 °C 17.1 °F /  -8.3 °C 30.78in /  1042.2hPa NNE 3.0mph /  4.8km/h 6.0mph /  9.7km/h 77% 0.00in /  0mm
22:14 23.1 °F /  -4.9 °C 17.0 °F /  -8.3 °C 30.78in /  1042.2hPa NNE 4.0mph /  6.4km/h 8.0mph /  12.9km/h 77% 0.00in /  0mm
22:19 23.1 °F /  -4.9 °C 17.0 °F /  -8.3 °C 30.78in /  1042.2hPa NNE 2.0mph /  3.2km/h 6.0mph /  9.7km/h 77% 0.00in /  0mm
22:24 23.0 °F /  -5 °C 16.9 °F /  -8.4 °C 30.78in /  1042.2hPa NNE 4.0mph /  6.4km/h 10.0mph /  16.1km/h 77% 0.00in /  0mm
22:29 23.0 °F /  -5 °C 16.9 °F /  -8.4 °C 30.78in /  1042.2hPa NE 3.0mph /  4.8km/h 10.0mph /  16.1km/h 77% 0.00in /  0mm
22:34 23.0 °F /  -5 °C 17.2 °F /  -8.2 °C 30.77in /  1041.9hPa NE 4.0mph /  6.4km/h 8.0mph /  12.9km/h 78% 0.00in /  0mm
22:39 22.9 °F /  -5.1 °C 16.8 °F /  -8.4 °C 30.77in /  1041.9hPa NE 5.0mph /  8km/h 11.0mph /  17.7km/h 77% 0.00in /  0mm
22:44 22.9 °F /  -5.1 °C 16.8 °F /  -8.4 °C 30.77in /  1041.9hPa NE 4.0mph /  6.4km/h 11.0mph /  17.7km/h 77% 0.00in /  0mm
22:49 22.7 °F /  -5.2 °C 16.6 °F /  -8.6 °C 30.77in /  1041.9hPa NE 4.0mph /  6.4km/h 8.0mph /  12.9km/h 77% 0.00in /  0mm
22:54 22.6 °F /  -5.2 °C 16.5 °F /  -8.6 °C 30.77in /  1041.9hPa NE 4.0mph /  6.4km/h 9.0mph /  14.5km/h 77% 0.00in /  0mm
22:59 22.5 °F /  -5.3 °C 16.1 °F /  -8.8 °C 30.77in /  1041.9hPa ENE 5.0mph /  8km/h 9.0mph /  14.5km/h 76% 0.00in /  0mm
23:04 22.5 °F /  -5.3 °C 16.1 °F /  -8.8 °C 30.76in /  1041.5hPa NE 6.0mph /  9.7km/h 9.0mph /  14.5km/h 76% 0.00in /  0mm
23:09 22.4 °F /  -5.3 °C 16.0 °F /  -8.9 °C 30.76in /  1041.5hPa NNE 5.0mph /  8km/h 8.0mph /  12.9km/h 76% 0.00in /  0mm
23:14 22.4 °F /  -5.3 °C 16.0 °F /  -8.9 °C 30.76in /  1041.5hPa NE 4.0mph /  6.4km/h 9.0mph /  14.5km/h 76% 0.00in /  0mm
23:19 22.4 °F /  -5.3 °C 16.3 °F /  -8.7 °C 30.76in /  1041.5hPa NE 3.0mph /  4.8km/h 7.0mph /  11.3km/h 77% 0.00in /  0mm
23:24 22.4 °F /  -5.3 °C 16.3 °F /  -8.7 °C 30.76in /  1041.5hPa NE 2.0mph /  3.2km/h 9.0mph /  14.5km/h 77% 0.00in /  0mm
23:29 22.5 °F /  -5.3 °C 16.1 °F /  -8.8 °C 30.76in /  1041.5hPa NE 4.0mph /  6.4km/h 10.0mph /  16.1km/h 76% 0.00in /  0mm
23:34 22.5 °F /  -5.3 °C 16.1 °F /  -8.8 °C 30.76in /  1041.5hPa East 3.0mph /  4.8km/h 5.0mph /  8km/h 76% 0.00in /  0mm
23:39 22.5 °F /  -5.3 °C 16.1 °F /  -8.8 °C 30.76in /  1041.5hPa NE 6.0mph /  9.7km/h 9.0mph /  14.5km/h 76% 0.00in /  0mm
23:44 22.5 °F /  -5.3 °C 16.4 °F /  -8.7 °C 30.76in /  1041.5hPa NE 4.0mph /  6.4km/h 9.0mph /  14.5km/h 77% 0.00in /  0mm
23:49 22.5 °F /  -5.3 °C 16.4 °F /  -8.7 °C 30.76in /  1041.5hPa NE 4.0mph /  6.4km/h 9.0mph /  14.5km/h 77% 0.00in /  0mm
23:54 22.4 °F /  -5.3 °C 16.3 °F /  -8.7 °C 30.76in /  1041.5hPa NE 5.0mph /  8km/h 9.0mph /  14.5km/h 77% 0.00in /  0mm
23:59 22.3 °F /  -5.4 °C 16.2 °F /  -8.8 °C 30.76in /  1041.5hPa NE 5.0mph /  8km/h 9.0mph /  14.5km/h 77% 0.00in /  0mm
Buffalo, New York, USA
Compliments of Weather Underground - 2.5 mb